createdAt,value
2018-03-24T00:00:56.222Z,7.69
2018-03-24T00:01:56.515Z,7.75
2018-03-24T00:02:56.533Z,7.72
2018-03-24T00:03:56.258Z,7.72
2018-03-24T00:04:56.548Z,7.73
2018-03-24T00:05:56.564Z,7.61
2018-03-24T00:06:56.295Z,7.67
2018-03-24T00:07:56.304Z,7.58
2018-03-24T00:08:56.607Z,7.67
2018-03-24T00:09:56.615Z,7.6
2018-03-24T00:10:56.627Z,7.67
2018-03-24T00:11:56.071Z,7.63
2018-03-24T00:12:56.418Z,7.7
2018-03-24T00:13:56.384Z,7.63
2018-03-24T00:14:56.399Z,7.63
2018-03-24T00:15:56.120Z,7.45
2018-03-24T00:16:56.723Z,7.56
2018-03-24T00:17:56.716Z,7.56
2018-03-24T00:18:56.156Z,7.54
2018-03-24T00:19:56.449Z,7.51
2018-03-24T00:20:56.750Z,7.51
2018-03-24T00:21:56.476Z,7.54
2018-03-24T00:22:56.783Z,7.5
2018-03-24T00:23:56.790Z,7.51
2018-03-24T00:24:56.810Z,7.48
2018-03-24T00:25:56.244Z,7.4
2018-03-24T00:26:56.824Z,7.39
2018-03-24T00:27:56.604Z,7.4
2018-03-24T00:28:56.283Z,7.47
2018-03-24T00:29:56.870Z,7.42
2018-03-24T00:30:56.878Z,7.43
2018-03-24T00:31:56.315Z,7.5
2018-03-24T00:32:56.947Z,7.47
2018-03-24T00:33:56.342Z,7.43
2018-03-24T00:34:56.925Z,7.36
2018-03-24T00:35:56.650Z,7.36
2018-03-24T00:36:56.660Z,7.31
2018-03-24T00:37:56.670Z,7.31
2018-03-24T00:38:56.697Z,7.28
2018-03-24T00:39:56.981Z,7.28
2018-03-24T00:40:56.716Z,7.36
2018-03-24T00:41:57.008Z,7.29
2018-03-24T00:42:56.791Z,7.25
2018-03-24T00:43:56.744Z,7.33
2018-03-24T00:44:57.045Z,7.31
2018-03-24T00:45:56.775Z,7.35
2018-03-24T00:46:56.500Z,7.31
2018-03-24T00:47:57.075Z,7.32
2018-03-24T00:48:56.810Z,7.2
2018-03-24T00:49:56.819Z,7.24
2018-03-24T00:50:57.112Z,7.2
2018-03-24T00:51:57.128Z,7.18
2018-03-24T00:52:57.194Z,7.24
2018-03-24T00:53:56.864Z,7.23
2018-03-24T00:54:57.164Z,7.15
2018-03-24T00:55:56.609Z,7.17
2018-03-24T00:56:56.906Z,7.14
2018-03-24T00:57:57.201Z,7.17
2018-03-24T00:58:56.927Z,7.2
2018-03-24T00:59:56.940Z,7.17
2018-03-24T01:00:57.239Z,7.18
2018-03-24T01:01:57.250Z,7.13
2018-03-24T01:02:57.309Z,7.14
2018-03-24T01:03:56.989Z,7.17
2018-03-24T01:04:57.279Z,7.18
2018-03-24T01:05:57.010Z,7.11
2018-03-24T01:06:57.365Z,7.15
2018-03-24T01:07:56.798Z,7.15
2018-03-24T01:08:57.066Z,7.13
2018-03-24T01:09:57.343Z,7.17
2018-03-24T01:10:57.350Z,7.17
2018-03-24T01:11:56.797Z,7.2
2018-03-24T01:12:57.380Z,7.14
2018-03-24T01:13:57.389Z,7.21
2018-03-24T01:14:57.118Z,7.24
2018-03-24T01:15:57.410Z,7.18
2018-03-24T01:16:57.145Z,7.23
2018-03-24T01:17:57.490Z,7.17
2018-03-24T01:18:57.455Z,7.18
2018-03-24T01:19:57.465Z,7.18
2018-03-24T01:20:57.474Z,7.17
2018-03-24T01:21:57.484Z,7.17
2018-03-24T01:22:56.981Z,7.14
2018-03-24T01:23:56.938Z,7.18
2018-03-24T01:24:57.522Z,7.2
2018-03-24T01:25:57.532Z,7.07
2018-03-24T01:26:57.547Z,7.13
2018-03-24T01:27:57.327Z,7.13
2018-03-24T01:28:57.563Z,7.11
2018-03-24T01:29:57.305Z,7.14
2018-03-24T01:30:57.309Z,7.07
2018-03-24T01:31:57.605Z,7.11
2018-03-24T01:32:57.331Z,7.14
2018-03-24T01:33:57.624Z,7.07
2018-03-24T01:34:57.645Z,7.13
2018-03-24T01:35:57.650Z,7.18
2018-03-24T01:36:57.097Z,7.06
2018-03-24T01:37:57.392Z,7.06
2018-03-24T01:38:57.404Z,7.11
2018-03-24T01:39:57.701Z,7.07
2018-03-24T01:40:57.425Z,7.1
2018-03-24T01:41:57.726Z,7.07
2018-03-24T01:42:57.165Z,7.06
2018-03-24T01:43:57.741Z,7.07
2018-03-24T01:44:57.483Z,7.02
2018-03-24T01:45:57.487Z,7.02
2018-03-24T01:46:57.784Z,7.11
2018-03-24T01:47:57.803Z,7.06
2018-03-24T01:48:57.522Z,7.06
2018-03-24T01:49:57.248Z,7.06
2018-03-24T01:50:57.879Z,7.02
2018-03-24T01:51:57.561Z,7.13
2018-03-24T01:52:57.852Z,7.1
2018-03-24T01:53:57.868Z,7.05
2018-03-24T01:54:57.593Z,7.05
2018-03-24T01:55:57.317Z,7.02
2018-03-24T01:56:57.895Z,7.06
2018-03-24T01:57:57.909Z,7.05
2018-03-24T01:58:57.641Z,7.06
2018-03-24T01:59:57.929Z,7.07
2018-03-24T02:00:57.383Z,7.06
2018-03-24T02:01:57.670Z,7.06
2018-03-24T02:02:57.402Z,7.07
2018-03-24T02:03:57.983Z,7.02
2018-03-24T02:04:57.708Z,7.07
2018-03-24T02:05:57.437Z,7.02
2018-03-24T02:06:57.732Z,7.06
2018-03-24T02:07:57.744Z,7.03
2018-03-24T02:08:58.046Z,7.05
2018-03-24T02:09:58.044Z,7
2018-03-24T02:10:57.780Z,7.05
2018-03-24T02:11:58.112Z,7.06
2018-03-24T02:12:58.089Z,7.02
2018-03-24T02:13:57.820Z,6.97
2018-03-24T02:14:57.825Z,7.03
2018-03-24T02:15:57.837Z,7.02
2018-03-24T02:16:58.138Z,6.93
2018-03-24T02:17:57.629Z,7.05
2018-03-24T02:18:58.166Z,6.89
2018-03-24T02:19:57.896Z,7
2018-03-24T02:20:57.894Z,6.92
2018-03-24T02:21:58.190Z,6.97
2018-03-24T02:22:58.200Z,6.95
2018-03-24T02:23:58.215Z,6.93
2018-03-24T02:24:57.943Z,6.88
2018-03-24T02:25:58.240Z,6.88
2018-03-24T02:26:58.247Z,6.89
2018-03-24T02:27:58.260Z,6.93
2018-03-24T02:28:58.276Z,6.93
2018-03-24T02:29:58.288Z,6.93
2018-03-24T02:30:58.318Z,6.92
2018-03-24T02:31:58.025Z,6.89
2018-03-24T02:32:58.036Z,6.95
2018-03-24T02:33:58.333Z,6.93
2018-03-24T02:34:58.343Z,6.88
2018-03-24T02:35:58.357Z,6.96
2018-03-24T02:36:58.085Z,6.93
2018-03-24T02:37:58.391Z,6.92
2018-03-24T02:38:58.122Z,6.96
2018-03-24T02:39:58.120Z,6.95
2018-03-24T02:40:58.128Z,6.88
2018-03-24T02:41:58.427Z,6.92
2018-03-24T02:42:58.447Z,6.88
2018-03-24T02:43:58.167Z,6.87
2018-03-24T02:44:58.469Z,6.88
2018-03-24T02:45:58.185Z,6.89
2018-03-24T02:46:58.486Z,6.88
2018-03-24T02:47:58.219Z,6.88
2018-03-24T02:48:58.218Z,6.88
2018-03-24T02:49:58.524Z,6.84
2018-03-24T02:50:58.530Z,6.85
2018-03-24T02:51:58.256Z,6.92
2018-03-24T02:52:58.556Z,6.92
2018-03-24T02:53:58.287Z,6.85
2018-03-24T02:54:58.581Z,6.88
2018-03-24T02:55:58.587Z,6.87
2018-03-24T02:56:58.597Z,6.85
2018-03-24T02:57:58.337Z,6.85
2018-03-24T02:58:58.675Z,6.88
2018-03-24T02:59:58.354Z,6.87
2018-03-24T03:00:58.649Z,6.85
2018-03-24T03:01:58.379Z,6.85
2018-03-24T03:02:58.100Z,6.84
2018-03-24T03:03:58.686Z,6.85
2018-03-24T03:04:58.422Z,6.85
2018-03-24T03:05:58.713Z,6.87
2018-03-24T03:06:58.428Z,6.78
2018-03-24T03:07:58.445Z,6.89
2018-03-24T03:08:58.737Z,6.77
2018-03-24T03:09:58.748Z,6.81
2018-03-24T03:10:58.486Z,6.75
2018-03-24T03:11:58.771Z,6.78
2018-03-24T03:12:58.799Z,6.75
2018-03-24T03:13:58.559Z,6.82
2018-03-24T03:14:58.530Z,6.75
2018-03-24T03:15:58.531Z,6.72
2018-03-24T03:16:58.545Z,6.79
2018-03-24T03:17:58.838Z,6.81
2018-03-24T03:18:58.283Z,6.74
2018-03-24T03:19:58.859Z,6.74
2018-03-24T03:20:58.883Z,6.75
2018-03-24T03:21:58.601Z,6.75
2018-03-24T03:22:58.902Z,6.75
2018-03-24T03:23:58.965Z,6.72
2018-03-24T03:24:58.641Z,6.75
2018-03-24T03:25:58.933Z,6.75
2018-03-24T03:26:58.956Z,6.78
2018-03-24T03:27:59.177Z,6.79
2018-03-24T03:28:59.018Z,6.75
2018-03-24T03:29:58.697Z,6.67
2018-03-24T03:30:58.715Z,6.66
2018-03-24T03:31:58.720Z,6.69
2018-03-24T03:32:59.033Z,6.77
2018-03-24T03:33:58.742Z,6.64
2018-03-24T03:34:59.039Z,6.67
2018-03-24T03:35:58.786Z,6.74
2018-03-24T03:36:59.067Z,6.64
2018-03-24T03:37:58.782Z,6.72
2018-03-24T03:38:58.852Z,6.66
2018-03-24T03:39:58.527Z,6.66
2018-03-24T03:40:58.537Z,6.6
2018-03-24T03:41:59.114Z,6.63
2018-03-24T03:42:59.124Z,6.62
2018-03-24T03:43:58.852Z,6.62
2018-03-24T03:44:59.171Z,6.59
2018-03-24T03:45:58.596Z,6.67
2018-03-24T03:46:58.891Z,6.56
2018-03-24T03:47:58.904Z,6.56
2018-03-24T03:48:59.198Z,6.6
2018-03-24T03:49:58.923Z,6.75
2018-03-24T03:50:58.936Z,6.62
2018-03-24T03:51:58.944Z,6.69
2018-03-24T03:52:58.959Z,6.72
2018-03-24T03:53:59.255Z,6.63
2018-03-24T03:54:58.983Z,6.64
2018-03-24T03:55:59.285Z,6.63
2018-03-24T03:56:59.291Z,6.63
2018-03-24T03:57:59.294Z,6.72
2018-03-24T03:58:59.304Z,6.62
2018-03-24T03:59:59.319Z,6.54
2018-03-24T04:00:59.057Z,6.62
2018-03-24T04:01:58.784Z,6.57
2018-03-24T04:02:59.362Z,6.59
2018-03-24T04:03:59.079Z,6.57
2018-03-24T04:04:59.376Z,6.57
2018-03-24T04:05:59.386Z,6.62
2018-03-24T04:06:59.117Z,6.54
2018-03-24T04:07:59.134Z,6.6
2018-03-24T04:08:59.426Z,6.52
2018-03-24T04:09:59.488Z,6.52
2018-03-24T04:10:58.877Z,6.54
2018-03-24T04:11:59.175Z,6.52
2018-03-24T04:12:59.481Z,6.52
2018-03-24T04:13:59.194Z,6.54
2018-03-24T04:14:59.489Z,6.56
2018-03-24T04:15:59.501Z,6.57
2018-03-24T04:16:59.514Z,6.57
2018-03-24T04:17:59.241Z,6.57
2018-03-24T04:18:59.545Z,6.57
2018-03-24T04:19:59.312Z,6.54
2018-03-24T04:20:59.279Z,6.48
2018-03-24T04:21:59.002Z,6.51
2018-03-24T04:22:59.295Z,6.49
2018-03-24T04:23:59.593Z,6.49
2018-03-24T04:24:59.316Z,6.51
2018-03-24T04:25:59.613Z,6.49
2018-03-24T04:26:59.623Z,6.42
2018-03-24T04:27:59.352Z,6.48
2018-03-24T04:28:59.654Z,6.41
2018-03-24T04:29:59.656Z,6.46
2018-03-24T04:30:59.390Z,6.42
2018-03-24T04:31:59.686Z,6.46
2018-03-24T04:32:59.125Z,6.38
2018-03-24T04:33:59.708Z,6.49
2018-03-24T04:34:59.718Z,6.33
2018-03-24T04:35:59.440Z,6.36
2018-03-24T04:36:59.738Z,6.33
2018-03-24T04:37:59.751Z,6.36
2018-03-24T04:38:59.198Z,6.45
2018-03-24T04:39:59.485Z,6.33
2018-03-24T04:40:59.780Z,6.35
2018-03-24T04:41:59.514Z,6.44
2018-03-24T04:42:59.803Z,6.39
2018-03-24T04:43:59.532Z,6.33
2018-03-24T04:44:59.553Z,6.38
2018-03-24T04:45:59.556Z,6.36
2018-03-24T04:46:59.569Z,6.36
2018-03-24T04:47:59.294Z,6.33
2018-03-24T04:48:59.876Z,6.33
2018-03-24T04:49:59.885Z,6.35
2018-03-24T04:50:59.906Z,6.33
2018-03-24T04:51:59.623Z,6.36
2018-03-24T04:52:59.635Z,6.36
2018-03-24T04:53:59.645Z,6.36
2018-03-24T04:54:59.939Z,6.33
2018-03-24T04:55:59.666Z,6.36
2018-03-24T04:56:59.677Z,6.33
2018-03-24T04:57:59.422Z,6.42
2018-03-24T04:58:59.984Z,6.28
2018-03-24T04:59:59.997Z,6.33
2018-03-24T05:01:00.002Z,6.3
2018-03-24T05:01:59.736Z,6.26
2018-03-24T05:02:59.463Z,6.3
2018-03-24T05:04:00.167Z,6.31
2018-03-24T05:05:00.047Z,6.31
2018-03-24T05:05:59.776Z,6.3
2018-03-24T05:06:59.791Z,6.27
2018-03-24T05:07:59.798Z,6.28
2018-03-24T05:08:59.811Z,6.27
2018-03-24T05:10:00.108Z,6.36
2018-03-24T05:11:00.118Z,6.33
2018-03-24T05:12:00.127Z,6.35
2018-03-24T05:13:00.135Z,6.31
2018-03-24T05:13:59.884Z,6.33
2018-03-24T05:15:00.166Z,6.28
2018-03-24T05:15:59.887Z,6.26
2018-03-24T05:17:00.185Z,6.28
2018-03-24T05:18:00.192Z,6.33
2018-03-24T05:19:00.204Z,6.28
2018-03-24T05:20:00.216Z,6.27
2018-03-24T05:21:00.232Z,6.28
2018-03-24T05:22:00.243Z,6.31
2018-03-24T05:23:00.259Z,6.33
2018-03-24T05:24:00.265Z,6.27
2018-03-24T05:25:00.286Z,6.26
2018-03-24T05:26:00.278Z,6.35
2018-03-24T05:27:00.014Z,6.33
2018-03-24T05:28:00.314Z,6.28
2018-03-24T05:29:00.403Z,6.22
2018-03-24T05:30:00.041Z,6.27
2018-03-24T05:31:00.345Z,6.31
2018-03-24T05:32:00.348Z,6.24
2018-03-24T05:33:00.360Z,6.27
2018-03-24T05:34:00.084Z,6.31
2018-03-24T05:35:00.097Z,6.3
2018-03-24T05:36:00.398Z,6.26
2018-03-24T05:36:59.840Z,6.28
2018-03-24T05:38:00.418Z,6.35
2018-03-24T05:39:00.159Z,6.2
2018-03-24T05:39:59.867Z,6.27
2018-03-24T05:41:00.447Z,6.3
2018-03-24T05:41:59.956Z,6.31
2018-03-24T05:43:00.470Z,6.27
2018-03-24T05:44:00.491Z,6.35
2018-03-24T05:45:00.494Z,6.3
2018-03-24T05:46:00.510Z,6.28
2018-03-24T05:47:00.233Z,6.28
2018-03-24T05:47:59.959Z,6.28
2018-03-24T05:49:00.252Z,6.31
2018-03-24T05:50:00.567Z,6.31
2018-03-24T05:51:00.276Z,6.28
2018-03-24T05:52:00.298Z,6.31
2018-03-24T05:53:00.582Z,6.27
2018-03-24T05:54:00.599Z,6.31
2018-03-24T05:55:00.510Z,6.3
2018-03-24T05:56:00.344Z,6.26
2018-03-24T05:57:00.624Z,6.33
2018-03-24T05:58:00.652Z,6.33
2018-03-24T05:59:00.647Z,6.31
2018-03-24T06:00:00.662Z,6.33
2018-03-24T06:01:00.103Z,6.28
2018-03-24T06:02:00.987Z,6.28
2018-03-24T06:03:00.416Z,6.27
2018-03-24T06:04:00.832Z,6.3
2018-03-24T06:05:00.487Z,6.31
2018-03-24T06:06:00.456Z,6.33
2018-03-24T06:07:00.733Z,6.36
2018-03-24T06:08:00.470Z,6.36
2018-03-24T06:09:00.472Z,6.31
2018-03-24T06:10:00.483Z,6.35
2018-03-24T06:11:00.490Z,6.33
2018-03-24T06:12:00.505Z,6.36
2018-03-24T06:13:00.235Z,6.31
2018-03-24T06:14:00.772Z,6.31
2018-03-24T06:15:00.586Z,6.31
2018-03-24T06:16:00.841Z,6.3
2018-03-24T06:17:00.970Z,6.39
2018-03-24T06:18:00.579Z,6.38
2018-03-24T06:19:00.586Z,6.33
2018-03-24T06:20:00.894Z,6.38
2018-03-24T06:21:00.639Z,6.35
2018-03-24T06:22:00.904Z,6.49
2018-03-24T06:23:00.628Z,6.49
2018-03-24T06:24:00.379Z,6.46
2018-03-24T06:25:01.005Z,6.44
2018-03-24T06:26:00.387Z,6.45
2018-03-24T06:27:00.738Z,6.46
2018-03-24T06:28:00.743Z,6.52
2018-03-24T06:29:00.975Z,6.48
2018-03-24T06:30:00.423Z,6.57
2018-03-24T06:31:00.680Z,6.57
2018-03-24T06:32:01.042Z,6.52
2018-03-24T06:33:01.023Z,6.52
2018-03-24T06:34:01.036Z,6.46
2018-03-24T06:35:00.755Z,6.52
2018-03-24T06:36:00.774Z,6.57
2018-03-24T06:37:00.779Z,6.64
2018-03-24T06:38:01.106Z,6.59
2018-03-24T06:39:00.806Z,6.57
2018-03-24T06:40:00.851Z,6.62
2018-03-24T06:41:01.150Z,6.62
2018-03-24T06:42:00.852Z,6.69
2018-03-24T06:43:00.869Z,6.75
2018-03-24T06:44:00.863Z,6.63
2018-03-24T06:45:00.993Z,6.64
2018-03-24T06:46:01.179Z,6.66
2018-03-24T06:47:01.181Z,6.64
2018-03-24T06:48:00.907Z,6.72
2018-03-24T06:49:00.913Z,6.77
2018-03-24T06:50:01.245Z,6.79
2018-03-24T06:51:00.950Z,6.82
2018-03-24T06:52:00.964Z,6.84
2018-03-24T06:53:00.977Z,6.81
2018-03-24T06:54:01.252Z,6.92
2018-03-24T06:55:00.712Z,6.88
2018-03-24T06:56:01.065Z,6.93
2018-03-24T06:57:01.294Z,6.93
2018-03-24T06:58:01.026Z,6.95
2018-03-24T06:59:01.050Z,7.03
2018-03-24T07:00:01.431Z,7.1
2018-03-24T07:01:01.071Z,7.13
2018-03-24T07:02:01.087Z,7.1
2018-03-24T07:03:01.068Z,7.2
2018-03-24T07:04:01.371Z,7.15
2018-03-24T07:05:01.373Z,7.13
2018-03-24T07:06:01.463Z,7.15
2018-03-24T07:07:01.123Z,7.17
2018-03-24T07:08:00.853Z,7.24
2018-03-24T07:09:01.433Z,7.33
2018-03-24T07:10:01.211Z,7.31
2018-03-24T07:11:01.520Z,7.35
2018-03-24T07:12:01.478Z,7.43
2018-03-24T07:13:01.195Z,7.43
2018-03-24T07:14:00.916Z,7.48
2018-03-24T07:15:01.214Z,7.53
2018-03-24T07:16:01.509Z,7.5
2018-03-24T07:17:01.513Z,7.61
2018-03-24T07:18:01.233Z,7.58
2018-03-24T07:19:01.244Z,7.69
2018-03-24T07:20:01.258Z,7.7
2018-03-24T07:21:01.557Z,7.7
2018-03-24T07:22:01.565Z,7.82
2018-03-24T07:23:01.406Z,7.73
2018-03-24T07:24:01.019Z,7.88
2018-03-24T07:25:01.597Z,7.94
2018-03-24T07:26:01.604Z,8.03
2018-03-24T07:27:01.344Z,8
2018-03-24T07:28:01.349Z,8.05
2018-03-24T07:29:01.389Z,8.03
2018-03-24T07:30:01.666Z,8.05
2018-03-24T07:31:01.381Z,8.13
2018-03-24T07:32:01.396Z,8.12
2018-03-24T07:33:01.144Z,8.19
2018-03-24T07:34:01.727Z,8.31
2018-03-24T07:35:01.432Z,8.26
2018-03-24T07:36:01.488Z,8.41
2018-03-24T07:37:01.452Z,8.36
2018-03-24T07:38:01.745Z,8.37
2018-03-24T07:39:01.478Z,8.41
2018-03-24T07:40:01.488Z,8.48
2018-03-24T07:41:01.503Z,8.51
2018-03-24T07:42:01.507Z,8.52
2018-03-24T07:43:01.810Z,8.6
2018-03-24T07:44:01.820Z,8.66
2018-03-24T07:45:01.828Z,8.74
2018-03-24T07:46:01.585Z,8.71
2018-03-24T07:47:01.869Z,8.76
2018-03-24T07:48:01.862Z,8.79
2018-03-24T07:49:01.596Z,8.84
2018-03-24T07:50:01.611Z,8.81
2018-03-24T07:51:01.898Z,8.84
2018-03-24T07:52:01.629Z,8.85
2018-03-24T07:53:01.931Z,8.99
2018-03-24T07:54:01.658Z,9.02
2018-03-24T07:55:01.950Z,9.04
2018-03-24T07:56:01.963Z,9.14
2018-03-24T07:57:01.687Z,9.13
2018-03-24T07:58:01.699Z,9.23
2018-03-24T07:59:01.715Z,9.26
2018-03-24T08:00:01.744Z,9.21
2018-03-24T08:01:01.733Z,9.31
2018-03-24T08:02:02.033Z,9.32
2018-03-24T08:03:02.051Z,9.44
2018-03-24T08:04:02.054Z,9.47
2018-03-24T08:05:01.783Z,9.43
2018-03-24T08:06:02.131Z,9.54
2018-03-24T08:07:02.091Z,9.55
2018-03-24T08:08:02.103Z,9.65
2018-03-24T08:09:01.834Z,9.73
2018-03-24T08:10:01.846Z,9.62
2018-03-24T08:11:02.205Z,9.68
2018-03-24T08:12:02.152Z,9.74
2018-03-24T08:13:01.882Z,9.72
2018-03-24T08:14:01.892Z,9.69
2018-03-24T08:15:01.907Z,9.72
2018-03-24T08:16:01.919Z,9.82
2018-03-24T08:17:02.215Z,9.8
2018-03-24T08:18:02.229Z,9.89
2018-03-24T08:19:01.958Z,9.92
2018-03-24T08:20:01.694Z,9.95
2018-03-24T08:21:02.268Z,10.01
2018-03-24T08:22:02.278Z,10.13
2018-03-24T08:23:02.050Z,10.13
2018-03-24T08:24:02.296Z,10.13
2018-03-24T08:25:02.318Z,10.22
2018-03-24T08:26:02.333Z,10.2
2018-03-24T08:27:02.056Z,10.28
2018-03-24T08:28:02.367Z,10.31
2018-03-24T08:29:02.363Z,10.4
2018-03-24T08:30:02.091Z,10.42
2018-03-24T08:31:02.392Z,10.38
2018-03-24T08:32:02.117Z,10.51
2018-03-24T08:33:02.416Z,10.56
2018-03-24T08:34:02.146Z,10.53
2018-03-24T08:35:02.159Z,10.59
2018-03-24T08:36:02.500Z,10.72
2018-03-24T08:37:02.477Z,10.79
2018-03-24T08:38:01.910Z,10.79
2018-03-24T08:39:02.498Z,10.82
2018-03-24T08:40:02.221Z,10.81
2018-03-24T08:41:01.952Z,10.87
2018-03-24T08:42:02.537Z,10.9
2018-03-24T08:43:02.265Z,10.96
2018-03-24T08:44:02.569Z,11
2018-03-24T08:45:02.288Z,11.12
2018-03-24T08:46:02.586Z,11.08
2018-03-24T08:47:02.316Z,11.1
2018-03-24T08:48:02.610Z,11.17
2018-03-24T08:49:02.347Z,11.26
2018-03-24T08:50:02.654Z,11.23
2018-03-24T08:51:02.421Z,11.35
2018-03-24T08:52:02.379Z,11.44
2018-03-24T08:53:02.684Z,11.33
2018-03-24T08:54:02.421Z,11.51
2018-03-24T08:55:02.705Z,11.47
2018-03-24T08:56:02.483Z,11.55
2018-03-24T08:57:02.730Z,11.6
2018-03-24T08:58:02.470Z,11.72
2018-03-24T08:59:02.474Z,11.63
2018-03-24T09:00:02.489Z,11.68
2018-03-24T09:01:02.502Z,11.78
2018-03-24T09:02:02.562Z,11.75
2018-03-24T09:03:02.810Z,11.86
2018-03-24T09:04:02.559Z,11.77
2018-03-24T09:05:02.843Z,11.87
2018-03-24T09:06:02.900Z,11.81
2018-03-24T09:07:02.872Z,12.04
2018-03-24T09:08:02.883Z,12.03
2018-03-24T09:09:02.898Z,12.13
2018-03-24T09:10:02.914Z,12.18
2018-03-24T09:11:02.928Z,12.12
2018-03-24T09:12:02.953Z,12.28
2018-03-24T09:13:02.948Z,12.25
2018-03-24T09:14:02.979Z,12.27
2018-03-24T09:15:02.772Z,12.45
2018-03-24T09:16:02.709Z,12.36
2018-03-24T09:17:03.015Z,12.46
2018-03-24T09:18:02.750Z,12.47
2018-03-24T09:19:03.036Z,12.6
2018-03-24T09:20:02.777Z,12.64
2018-03-24T09:21:03.076Z,12.7
2018-03-24T09:22:03.079Z,12.72
2018-03-24T09:23:02.806Z,12.7
2018-03-24T09:24:03.127Z,12.8
2018-03-24T09:25:02.835Z,12.82
2018-03-24T09:26:02.871Z,12.8
2018-03-24T09:27:02.865Z,12.86
2018-03-24T09:28:03.285Z,12.94
2018-03-24T09:29:02.889Z,12.95
2018-03-24T09:30:02.622Z,12.91
2018-03-24T09:31:03.209Z,13.04
2018-03-24T09:32:03.240Z,13
2018-03-24T09:33:03.235Z,13.03
2018-03-24T09:34:02.992Z,13
2018-03-24T09:35:03.348Z,13.08
2018-03-24T09:36:03.008Z,13.11
2018-03-24T09:37:03.290Z,13.05
2018-03-24T09:38:03.029Z,13.03
2018-03-24T09:39:03.039Z,13.11
2018-03-24T09:40:03.074Z,13.2
2018-03-24T09:41:03.073Z,13.2
2018-03-24T09:42:02.823Z,13.2
2018-03-24T09:43:03.380Z,13.2
2018-03-24T09:44:03.395Z,13.31
2018-03-24T09:45:03.411Z,13.28
2018-03-24T09:46:03.167Z,13.33
2018-03-24T09:47:02.873Z,13.37
2018-03-24T09:48:03.179Z,13.46
2018-03-24T09:49:03.186Z,13.46
2018-03-24T09:50:03.483Z,13.5
2018-03-24T09:51:03.217Z,13.59
2018-03-24T09:52:03.575Z,13.6
2018-03-24T09:53:03.272Z,13.65
2018-03-24T09:54:03.551Z,13.62
2018-03-24T09:55:03.275Z,13.83
2018-03-24T09:56:03.305Z,13.79
2018-03-24T09:57:03.309Z,13.77
2018-03-24T09:58:03.048Z,13.86
2018-03-24T09:59:03.339Z,13.85
2018-03-24T10:00:03.359Z,13.89
2018-03-24T10:01:03.653Z,13.95
2018-03-24T10:02:03.417Z,14.03
2018-03-24T10:03:03.111Z,14.03
2018-03-24T10:04:03.698Z,14.07
2018-03-24T10:05:03.711Z,14.14
2018-03-24T10:06:03.728Z,14.2
2018-03-24T10:07:03.176Z,14.15
2018-03-24T10:08:03.766Z,14.2
2018-03-24T10:09:03.772Z,14.26
2018-03-24T10:10:03.516Z,14.25
2018-03-24T10:11:03.842Z,14.29
2018-03-24T10:12:03.871Z,14.33
2018-03-24T10:13:03.840Z,14.47
2018-03-24T10:14:03.579Z,14.4
2018-03-24T10:15:03.584Z,14.51
2018-03-24T10:16:03.613Z,14.51
2018-03-24T10:17:03.612Z,14.53
2018-03-24T10:18:03.368Z,14.62
2018-03-24T10:19:03.646Z,14.6
2018-03-24T10:20:03.661Z,14.73
2018-03-24T10:21:03.681Z,14.77
2018-03-24T10:22:03.695Z,14.73
2018-03-24T10:23:03.709Z,14.84
2018-03-24T10:24:03.731Z,14.91
2018-03-24T10:25:04.022Z,15
2018-03-24T10:26:03.758Z,14.99
2018-03-24T10:27:03.780Z,14.99
2018-03-24T10:28:04.069Z,15.02
2018-03-24T10:29:03.812Z,15.15
2018-03-24T10:30:03.819Z,15.07
2018-03-24T10:31:03.843Z,15.24
2018-03-24T10:32:03.869Z,15.31
2018-03-24T10:33:03.871Z,15.17
2018-03-24T10:34:03.891Z,15.29
2018-03-24T10:35:04.198Z,15.28
2018-03-24T10:36:03.924Z,15.33
2018-03-24T10:37:04.223Z,15.4
2018-03-24T10:38:03.950Z,15.43
2018-03-24T10:39:04.257Z,15.52
2018-03-24T10:40:03.984Z,15.54
2018-03-24T10:41:03.997Z,15.52
2018-03-24T10:42:03.730Z,15.67
2018-03-24T10:43:04.034Z,15.67
2018-03-24T10:44:04.051Z,15.64
2018-03-24T10:45:03.784Z,15.68
2018-03-24T10:46:04.082Z,15.7
2018-03-24T10:47:04.392Z,15.68
2018-03-24T10:48:03.831Z,15.8
2018-03-24T10:49:04.415Z,15.9
2018-03-24T10:50:04.438Z,15.88
2018-03-24T10:51:04.169Z,15.94
2018-03-24T10:52:04.249Z,16
2018-03-24T10:53:04.198Z,15.98
2018-03-24T10:54:03.935Z,15.97
2018-03-24T10:55:04.236Z,16.12
2018-03-24T10:56:04.251Z,16.08
2018-03-24T10:57:04.265Z,16.13
2018-03-24T10:58:04.318Z,16.16
2018-03-24T10:59:04.357Z,16.24
2018-03-24T11:00:04.601Z,16.33
2018-03-24T11:01:04.623Z,16.42
2018-03-24T11:02:04.663Z,16.39
2018-03-24T11:03:04.665Z,16.51
2018-03-24T11:04:04.674Z,16.53
2018-03-24T11:05:04.694Z,16.58
2018-03-24T11:06:04.425Z,16.64
2018-03-24T11:07:04.437Z,16.74
2018-03-24T11:08:04.174Z,16.84
2018-03-24T11:09:04.478Z,16.81
2018-03-24T11:10:04.206Z,16.89
2018-03-24T11:11:04.509Z,16.94
2018-03-24T11:12:04.522Z,16.9
2018-03-24T11:13:04.300Z,17.11
2018-03-24T11:14:04.843Z,17.04
2018-03-24T11:15:04.578Z,17.05
2018-03-24T11:16:04.881Z,17.12
2018-03-24T11:17:04.903Z,17.05
2018-03-24T11:18:04.668Z,17.11
2018-03-24T11:19:04.938Z,17.08
2018-03-24T11:20:04.667Z,17.06
2018-03-24T11:21:04.687Z,17.12
2018-03-24T11:22:04.984Z,17.14
2018-03-24T11:23:05.005Z,17.19
2018-03-24T11:24:04.813Z,17.11
2018-03-24T11:25:04.757Z,17.09
2018-03-24T11:26:05.063Z,17.12
2018-03-24T11:27:05.093Z,17.09
2018-03-24T11:28:05.156Z,17.15
2018-03-24T11:29:04.592Z,17.12
2018-03-24T11:30:04.578Z,17.06
2018-03-24T11:31:04.876Z,17.15
2018-03-24T11:32:04.889Z,17.06
2018-03-24T11:33:05.014Z,17.14
2018-03-24T11:34:04.917Z,17.09
2018-03-24T11:35:04.655Z,17.14
2018-03-24T11:36:05.256Z,17.2
2018-03-24T11:37:05.254Z,17.22
2018-03-24T11:38:04.778Z,17.14
2018-03-24T11:39:05.302Z,17.06
2018-03-24T11:40:05.032Z,17.14
2018-03-24T11:41:05.338Z,17.22
2018-03-24T11:42:05.074Z,17.19
2018-03-24T11:43:05.082Z,17.11
2018-03-24T11:44:05.133Z,17.11
2018-03-24T11:45:05.518Z,17.2
2018-03-24T11:46:05.425Z,17.09
2018-03-24T11:47:05.444Z,17.2
2018-03-24T11:48:05.512Z,17.16
2018-03-24T11:49:05.199Z,17.15
2018-03-24T11:50:05.244Z,17.11
2018-03-24T11:51:04.946Z,17.12
2018-03-24T11:52:05.537Z,17.08
2018-03-24T11:53:05.552Z,17.09
2018-03-24T11:54:05.339Z,17.15
2018-03-24T11:55:05.306Z,17.08
2018-03-24T11:56:05.618Z,17.14
2018-03-24T11:57:05.346Z,17.06
2018-03-24T11:58:05.097Z,17.11
2018-03-24T11:59:05.666Z,17.14
2018-03-24T12:00:05.135Z,17.15
2018-03-24T12:01:05.418Z,17.12
2018-03-24T12:02:05.435Z,17.09
2018-03-24T12:03:05.456Z,17.14
2018-03-24T12:04:05.499Z,17.12
2018-03-24T12:05:05.489Z,17.19
2018-03-24T12:06:05.256Z,17.15
2018-03-24T12:07:05.539Z,17.2
2018-03-24T12:08:05.612Z,17.11
2018-03-24T12:09:05.576Z,17.14
2018-03-24T12:10:05.598Z,17.14
2018-03-24T12:11:05.916Z,17.14
2018-03-24T12:12:05.917Z,17.15
2018-03-24T12:13:06.221Z,17.19
2018-03-24T12:14:05.955Z,17.16
2018-03-24T12:15:05.973Z,17.19
2018-03-24T12:16:05.703Z,17.14
2018-03-24T12:17:06.055Z,17.12
2018-03-24T12:18:06.038Z,17.2
2018-03-24T12:19:06.045Z,17.2
2018-03-24T12:20:05.785Z,17.16
2018-03-24T12:21:05.819Z,17.23
2018-03-24T12:22:06.110Z,17.22
2018-03-24T12:23:05.881Z,17.23
2018-03-24T12:24:05.850Z,17.26
2018-03-24T12:25:05.587Z,17.24
2018-03-24T12:26:06.188Z,17.19
2018-03-24T12:27:05.627Z,17.33
2018-03-24T12:28:06.213Z,17.34
2018-03-24T12:29:05.950Z,17.38
2018-03-24T12:30:06.257Z,17.33
2018-03-24T12:31:05.704Z,17.38
2018-03-24T12:32:06.006Z,17.45
2018-03-24T12:33:06.034Z,17.49
2018-03-24T12:34:06.331Z,17.56
2018-03-24T12:35:06.348Z,17.51
2018-03-24T12:36:06.370Z,17.48
2018-03-24T12:37:06.100Z,17.51
2018-03-24T12:38:06.407Z,17.52
2018-03-24T12:39:06.146Z,17.6
2018-03-24T12:40:06.459Z,17.65
2018-03-24T12:41:06.463Z,17.67
2018-03-24T12:42:06.204Z,17.65
2018-03-24T12:43:06.531Z,17.63
2018-03-24T12:44:05.953Z,17.68
2018-03-24T12:45:06.256Z,17.72
2018-03-24T12:46:06.559Z,17.71
2018-03-24T12:47:06.577Z,17.78
2018-03-24T12:48:06.365Z,17.8
2018-03-24T12:49:06.612Z,17.92
2018-03-24T12:50:06.355Z,17.92
2018-03-24T12:51:06.664Z,17.9
2018-03-24T12:52:06.684Z,17.94
2018-03-24T12:53:06.412Z,18
2018-03-24T12:54:06.720Z,17.98
2018-03-24T12:55:06.449Z,18
2018-03-24T12:56:06.182Z,17.98
2018-03-24T12:57:06.769Z,18.08
2018-03-24T12:58:06.556Z,18.07
2018-03-24T12:59:06.245Z,18.05
2018-03-24T13:00:06.835Z,18.05
2018-03-24T13:01:06.847Z,18.07
2018-03-24T13:02:06.661Z,18.07
2018-03-24T13:03:06.325Z,18.03
2018-03-24T13:04:06.916Z,18.11
2018-03-24T13:05:06.363Z,18.13
2018-03-24T13:06:06.663Z,18.19
2018-03-24T13:07:06.685Z,18.2
2018-03-24T13:08:06.986Z,18.1
2018-03-24T13:09:06.719Z,18.26
2018-03-24T13:10:06.746Z,18.15
2018-03-24T13:11:07.046Z,18.19
2018-03-24T13:12:06.783Z,18.19
2018-03-24T13:13:07.088Z,18.19